Kevin Michael — WDE6709 — position and weather

sailwx.info

Track history (hours):
 
Tides and Currents Weather Stations Pressure Air Temp Water Temp Dewpoint Dewpoint Depression Visibility Wind Speed Wind Dir Waves Ship Positions

Kevin Michael

Owner: Steel City Marine Transport, Inc., Freedom, PA. More information available from US FCC via Universal Licensing System and Coast Guard Vessel Documentation Center.

Last reported at 2017-Sep-14 07:51 UTC. Time now 2017-Sep-21 15:44 UTC.
Position N 38°53' W 090°11'.

Length 36 m.

Type: Towing. MMSI: 367383660.

Date/timePositionNaut miles runAvg speedWind from/ knotsBaromVisibWave heightAir tempDewpointWater temp
2017-Sep-14 07:51N 38°53' W 090°11'2 4.5
2017-Sep-14 07:29N 38°54' W 090°12'1 0.3
2017-Sep-14 03:40N 38°55' W 090°13'0 0.1
2017-Sep-14 03:30N 38°55' W 090°13'1 0.8
2017-Sep-14 02:53N 38°55' W 090°14'2 3.7
2017-Sep-14 02:20N 38°55' W 090°17'1 4.3
2017-Sep-14 02:00N 38°55' W 090°18'2 4.1
2017-Sep-14 01:30N 38°56' W 090°21'2 5.0
2017-Sep-14 01:00N 38°58' W 090°23'2 4.7
2017-Sep-14 00:30N 38°57' W 090°27'2 4.4
2017-Sep-14 00:00N 38°56' W 090°29'2 4.7
2017-Sep-13 23:30N 38°55' W 090°31'  
2017-Sep-10 17:17N 40°58' W 090°57'0 0.0
2017-Sep-10 16:59N 40°58' W 090°57'0 0.1
2017-Sep-10 16:30N 40°58' W 090°57'0 0.0
2017-Sep-10 16:00N 40°58' W 090°57'0 0.0
2017-Sep-10 15:30N 40°58' W 090°57'0 0.5
2017-Sep-10 15:00N 40°58' W 090°57'5 5.0
2017-Sep-10 13:56N 41°03' W 090°57'2 5.1
2017-Sep-10 13:30N 41°06' W 090°57'4 5.3
2017-Sep-10 12:48N 41°09' W 090°59'1 4.9
2017-Sep-10 12:30N 41°10' W 091°00'3 3.7
2017-Sep-10 11:46N 41°11' W 091°03'  
Track history (hours):
 
Tides and Currents Weather Stations Pressure Air Temp Water Temp Dewpoint Dewpoint Depression Visibility Wind Speed Wind Dir Waves Ship Positions

Kevin Michael

Owner: Steel City Marine Transport, Inc., Freedom, PA. More information available from US FCC via Universal Licensing System and Coast Guard Vessel Documentation Center.

Last reported at 2017-Sep-14 07:51 UTC. Time now 2017-Sep-21 15:44 UTC.
Position N 38°53' W 090°11'.

Length 36 m.

Type: Towing. MMSI: 367383660.

Date/timePositionNaut miles runAvg speedWind from/ knotsBaromVisibWave heightAir tempDewpointWater temp
2017-Sep-14 07:51N 38°53' W 090°11'2 4.5
2017-Sep-14 07:29N 38°54' W 090°12'1 0.3
2017-Sep-14 03:40N 38°55' W 090°13'0 0.1
2017-Sep-14 03:30N 38°55' W 090°13'1 0.8
2017-Sep-14 02:53N 38°55' W 090°14'2 3.7
2017-Sep-14 02:20N 38°55' W 090°17'1 4.3
2017-Sep-14 02:00N 38°55' W 090°18'2 4.1
2017-Sep-14 01:30N 38°56' W 090°21'2 5.0
2017-Sep-14 01:00N 38°58' W 090°23'2 4.7
2017-Sep-14 00:30N 38°57' W 090°27'2 4.4
2017-Sep-14 00:00N 38°56' W 090°29'2 4.7
2017-Sep-13 23:30N 38°55' W 090°31'  
2017-Sep-10 17:17N 40°58' W 090°57'0 0.0
2017-Sep-10 16:59N 40°58' W 090°57'0 0.1
2017-Sep-10 16:30N 40°58' W 090°57'0 0.0
2017-Sep-10 16:00N 40°58' W 090°57'0 0.0
2017-Sep-10 15:30N 40°58' W 090°57'0 0.5
2017-Sep-10 15:00N 40°58' W 090°57'5 5.0
2017-Sep-10 13:56N 41°03' W 090°57'2 5.1
2017-Sep-10 13:30N 41°06' W 090°57'4 5.3
2017-Sep-10 12:48N 41°09' W 090°59'1 4.9
2017-Sep-10 12:30N 41°10' W 091°00'3 3.7
2017-Sep-10 11:46N 41°11' W 091°03'  

Dump ship's entire track history